Time;durP1;ratioP1;P1;durP2;ratioP2;P2;SDS_P1;SDS_P2;PMS_P1;PMS_P2;Temp;Humidity;BMP_temperature;BMP_pressure;BME280_temperature;BME280_humidity;BME280_pressure;Samples;Min_cycle;Max_cycle;Signal;HPM_P1;HPM_P2
2021/09/13 00:00:39;;;;;;;6.70;3.30;;;;;;;15.46;73.74;102060.69;5064309;28;20640;-48
2021/09/13 00:03:04;;;;;;;6.90;3.05;;;;;;;15.43;73.64;102061.50;5068635;28;20449;-48
2021/09/13 00:05:30;;;;;;;5.35;3.13;;;;;;;15.40;73.86;102061.50;5068637;28;20472;-50
2021/09/13 00:07:56;;;;;;;8.13;2.88;;;;;;;15.36;73.84;102062.34;5067571;28;20088;-48
2021/09/13 00:10:22;;;;;;;8.15;2.85;;;;;;;15.33;73.96;102057.03;5070524;28;20036;-48
2021/09/13 00:12:47;;;;;;;5.22;2.90;;;;;;;15.31;73.66;102061.34;5069739;28;20491;-49
2021/09/13 00:15:12;;;;;;;4.35;2.70;;;;;;;15.31;74.05;102057.84;5051765;28;20072;-47
2021/09/13 00:17:38;;;;;;;5.93;2.90;;;;;;;15.26;74.04;102057.78;5065725;28;20028;-48
2021/09/13 00:20:05;;;;;;;6.53;3.00;;;;;;;15.29;74.19;102057.84;5052428;28;20031;-50
2021/09/13 00:22:30;;;;;;;6.00;2.85;;;;;;;15.30;73.87;102054.38;5045051;28;20473;-48
2021/09/13 00:24:55;;;;;;;4.85;2.70;;;;;;;15.32;73.94;102054.38;5070009;28;20320;-51
2021/09/13 00:27:21;;;;;;;5.78;2.95;;;;;;;15.28;73.92;102057.81;5049921;28;20467;-47
2021/09/13 00:29:46;;;;;;;7.35;2.72;;;;;;;15.27;73.93;102058.69;5070035;28;20051;-49
2021/09/13 00:32:12;;;;;;;4.80;2.80;;;;;;;15.29;73.82;102054.34;5068863;28;20140;-47
2021/09/13 00:34:37;;;;;;;6.93;2.55;;;;;;;15.29;73.84;102062.22;5067395;28;20105;-49
2021/09/13 00:37:03;;;;;;;7.28;2.53;;;;;;;15.26;73.77;102055.16;5051596;28;20028;-48
2021/09/13 00:39:29;;;;;;;7.80;2.83;;;;;;;15.24;74.10;102062.16;5069234;28;20055;-48
2021/09/13 00:41:54;;;;;;;6.70;2.83;;;;;;;15.22;73.87;102056.00;5068604;28;20110;-50
2021/09/13 00:44:21;;;;;;;6.00;2.47;;;;;;;15.21;73.91;102053.34;5070592;28;20490;-49
2021/09/13 00:46:46;;;;;;;6.30;2.20;;;;;;;15.19;74.23;102052.44;5066497;28;20859;-48
2021/09/13 00:49:12;;;;;;;5.28;2.55;;;;;;;15.19;73.96;102050.69;5053821;28;20028;-49
2021/09/13 00:51:37;;;;;;;7.65;2.40;;;;;;;15.23;73.88;102051.63;5065508;28;20046;-48
2021/09/13 00:54:03;;;;;;;6.90;2.30;;;;;;;15.23;74.17;102047.25;5051331;28;20118;-51
2021/09/13 00:56:28;;;;;;;6.22;2.67;;;;;;;15.28;74.30;102053.47;5071008;28;20219;-50
2021/09/13 00:58:54;;;;;;;8.52;2.40;;;;;;;15.33;74.37;102049.13;5066585;28;20303;-51
2021/09/13 01:01:19;;;;;;;7.13;2.55;;;;;;;15.41;74.39;102055.38;5065369;28;20309;-48
2021/09/13 01:03:45;;;;;;;6.57;2.60;;;;;;;15.42;73.99;102044.00;5068254;28;20334;-51
2021/09/13 01:06:10;;;;;;;5.47;2.28;;;;;;;15.44;73.73;102050.16;5069629;28;20896;-49
2021/09/13 01:08:35;;;;;;;6.03;2.70;;;;;;;15.39;73.87;102054.47;5064953;28;20032;-50
2021/09/13 01:11:01;;;;;;;5.95;2.40;;;;;;;15.35;73.84;102051.78;5067925;28;20809;-50
2021/09/13 01:13:27;;;;;;;7.60;2.60;;;;;;;15.31;73.75;102044.72;5070515;28;20028;-48
2021/09/13 01:15:52;;;;;;;5.10;2.20;;;;;;;15.28;73.99;102044.69;5053143;28;20607;-49
2021/09/13 01:18:18;;;;;;;5.10;2.38;;;;;;;15.25;74.06;102045.53;5049825;28;20528;-49
2021/09/13 01:20:43;;;;;;;6.25;2.70;;;;;;;15.25;73.66;102037.63;5067325;28;20112;-47
2021/09/13 01:23:30;;;;;;;6.30;2.45;;;;;;;15.23;73.75;102047.25;5066661;28;20033;-51
2021/09/13 01:25:55;;;;;;;4.78;2.25;;;;;;;15.21;73.77;102046.34;5067552;28;20054;-51
2021/09/13 01:28:21;;;;;;;6.78;2.50;;;;;;;15.21;74.03;102046.34;5069843;28;20036;-50
2021/09/13 01:30:46;;;;;;;7.20;2.40;;;;;;;15.22;73.81;102048.13;5077749;28;20392;-48
2021/09/13 01:33:12;;;;;;;5.28;2.45;;;;;;;15.19;73.94;102048.06;5059381;28;20035;-47
2021/09/13 01:35:37;;;;;;;7.80;2.70;;;;;;;15.15;74.35;102041.03;5055665;28;20193;-50
2021/09/13 01:38:03;;;;;;;6.75;2.50;;;;;;;15.15;74.37;102045.38;5068925;28;20115;-48
2021/09/13 01:40:29;;;;;;;5.30;2.50;;;;;;;15.18;74.01;102046.34;5055631;28;20035;-48
2021/09/13 01:43:01;;;;;;;6.72;2.45;;;;;;;15.20;73.71;102044.59;5071067;28;20163;-50
2021/09/13 01:45:28;;;;;;;5.35;2.60;;;;;;;15.21;73.93;102045.47;5068481;28;20075;-53
2021/09/13 01:47:54;;;;;;;4.20;2.70;;;;;;;15.20;73.90;102043.69;5058110;28;20401;-47
2021/09/13 01:50:19;;;;;;;7.53;2.60;;;;;;;15.16;73.98;102034.91;5076778;28;20028;-46
2021/09/13 01:52:45;;;;;;;7.05;2.60;;;;;;;15.21;74.24;102032.34;5056385;28;20035;-48
2021/09/13 01:55:11;;;;;;;7.38;2.85;;;;;;;15.19;74.23;102026.16;5071446;28;20024;-49
2021/09/13 01:57:37;;;;;;;5.65;2.60;;;;;;;15.19;74.25;102029.69;5073408;28;20036;-47
2021/09/13 02:00:04;;;;;;;7.10;2.78;;;;;;;15.24;74.17;102025.38;5069741;28;20580;-50
2021/09/13 02:02:29;;;;;;;4.88;2.50;;;;;;;15.29;74.00;102017.56;5076485;28;20077;-48
2021/09/13 02:04:54;;;;;;;4.78;2.60;;;;;;;15.30;74.14;102022.84;5073818;28;20039;-47
2021/09/13 02:07:20;;;;;;;5.07;2.90;;;;;;;15.30;74.26;102020.22;5074914;28;20081;-48
2021/09/13 02:09:47;;;;;;;6.57;2.63;;;;;;;15.33;74.52;102028.13;5068358;28;20024;-47
2021/09/13 02:12:13;;;;;;;8.15;3.10;;;;;;;15.41;74.25;102022.97;5074814;28;20402;-49
2021/09/13 02:14:38;;;;;;;4.95;2.80;;;;;;;15.48;74.43;102026.53;5076616;28;20032;-47
2021/09/13 02:17:04;;;;;;;7.93;3.15;;;;;;;15.52;74.27;102025.72;5070880;28;20048;-49
2021/09/13 02:19:29;;;;;;;5.38;2.60;;;;;;;15.60;74.24;102019.72;5071988;28;20031;-48
2021/09/13 02:21:55;;;;;;;5.95;2.90;;;;;;;15.65;74.05;102019.75;5068148;28;20126;-48
2021/09/13 02:24:20;;;;;;;5.63;2.67;;;;;;;15.71;74.29;102023.34;5071500;28;20073;-48
2021/09/13 02:26:45;;;;;;;7.18;3.13;;;;;;;15.79;74.03;102026.06;5056790;28;20032;-53
2021/09/13 02:29:11;;;;;;;6.43;3.00;;;;;;;15.82;73.75;102024.31;5072466;28;20409;-49
2021/09/13 02:31:36;;;;;;;5.65;2.90;;;;;;;15.90;73.73;102016.53;5052099;28;20070;-48
2021/09/13 02:34:01;;;;;;;7.05;3.10;;;;;;;15.94;73.51;102013.03;5074862;28;20032;-49
2021/09/13 02:36:27;;;;;;;6.47;2.90;;;;;;;15.94;73.43;102010.41;5069369;28;20065;-48
2021/09/13 02:38:52;;;;;;;6.43;3.20;;;;;;;15.97;73.71;102017.47;5075441;28;20230;-49
2021/09/13 02:41:17;;;;;;;8.10;3.20;;;;;;;15.98;73.39;102012.19;5066021;28;20031;-50
2021/09/13 02:43:43;;;;;;;6.28;3.30;;;;;;;16.00;73.41;102020.09;5071268;28;20020;-48
2021/09/13 02:46:08;;;;;;;5.85;3.00;;;;;;;15.98;73.57;102012.19;5070182;28;20201;-50
2021/09/13 02:48:34;;;;;;;7.32;3.38;;;;;;;16.05;73.14;102018.38;5071791;28;20424;-51
2021/09/13 02:50:59;;;;;;;5.68;3.10;;;;;;;16.09;73.23;102015.81;5070465;28;20028;-49
2021/09/13 02:53:25;;;;;;;6.28;3.30;;;;;;;16.14;73.16;102011.47;5051030;28;20227;-48
2021/09/13 02:55:50;;;;;;;7.75;3.15;;;;;;;16.20;73.04;102021.19;5070095;28;20028;-49
2021/09/13 02:58:16;;;;;;;6.68;3.40;;;;;;;16.23;73.29;102016.81;5069036;28;20354;-51
2021/09/13 03:00:41;;;;;;;7.18;3.30;;;;;;;16.29;73.48;102023.88;5068738;28;20036;-49
2021/09/13 03:03:06;;;;;;;6.85;3.40;;;;;;;16.35;73.06;102018.66;5069637;28;20622;-50
2021/09/13 03:05:32;;;;;;;5.88;3.33;;;;;;;16.39;73.10;102015.19;5070411;28;20032;-48
2021/09/13 03:07:57;;;;;;;5.82;3.28;;;;;;;16.44;73.03;102025.75;5068052;28;20724;-48
2021/09/13 03:10:23;;;;;;;8.88;3.42;;;;;;;16.50;72.80;102021.41;5071123;28;20273;-49
2021/09/13 03:12:48;;;;;;;8.13;3.58;;;;;;;16.52;72.41;102027.59;5072160;28;20039;-49
2021/09/13 03:15:13;;;;;;;10.13;4.10;;;;;;;16.52;72.41;102016.16;5070290;28;20123;-48
2021/09/13 03:17:40;;;;;;;6.15;3.97;;;;;;;16.57;72.58;102020.59;5054781;28;20285;-51
2021/09/13 03:20:07;;;;;;;6.72;4.03;;;;;;;16.59;72.52;102015.31;5068283;28;20537;-50
2021/09/13 03:22:32;;;;;;;5.28;3.20;;;;;;;16.62;72.20;102013.63;5049126;28;20028;-47
2021/09/13 03:24:58;;;;;;;8.57;3.90;;;;;;;16.65;72.49;102011.91;5068429;28;20054;-48
2021/09/13 03:27:23;;;;;;;7.32;3.78;;;;;;;16.68;72.58;102017.19;5065932;28;20106;-47
2021/09/13 03:29:49;;;;;;;9.43;4.28;;;;;;;16.68;72.10;102014.53;5066008;28;20033;-47
2021/09/13 03:32:14;;;;;;;10.13;4.07;;;;;;;16.69;72.18;102017.19;5067701;28;20044;-47
2021/09/13 03:34:39;;;;;;;6.65;3.63;;;;;;;16.72;72.23;102014.56;5069259;28;20158;-49
2021/09/13 03:37:05;;;;;;;9.55;3.83;;;;;;;16.74;72.07;102015.47;5071048;28;20073;-49
2021/09/13 03:39:31;;;;;;;7.43;3.70;;;;;;;16.71;71.82;102012.78;5070476;28;20463;-48
2021/09/13 03:41:57;;;;;;;7.35;3.70;;;;;;;16.69;72.07;102005.78;5067845;28;20479;-50
2021/09/13 03:44:22;;;;;;;9.85;4.10;;;;;;;16.66;72.47;102011.88;5068689;28;20066;-46
2021/09/13 03:46:48;;;;;;;7.10;3.63;;;;;;;16.61;72.46;102011.88;5066214;28;20123;-51
2021/09/13 03:49:13;;;;;;;7.47;3.88;;;;;;;16.60;72.90;102004.84;5067344;28;20031;-50
2021/09/13 03:51:38;;;;;;;8.95;3.83;;;;;;;16.59;72.74;102005.69;5069215;28;20038;-47
2021/09/13 03:54:04;;;;;;;8.27;3.92;;;;;;;16.56;72.90;102002.16;5072081;28;20027;-48
2021/09/13 03:56:29;;;;;;;7.13;3.58;;;;;;;16.60;72.66;102006.59;5068612;28;20180;-49
2021/09/13 03:58:55;;;;;;;5.95;3.28;;;;;;;16.62;72.30;102007.50;5067700;28;20063;-48
2021/09/13 04:01:20;;;;;;;5.97;3.60;;;;;;;16.66;72.58;102005.75;5069754;28;20127;-47
2021/09/13 04:03:46;;;;;;;6.28;3.22;;;;;;;16.73;72.50;102004.91;5065685;28;20078;-47
2021/09/13 04:06:29;;;;;;;8.02;3.88;;;;;;;16.75;72.79;102008.44;5071922;28;20046;-47
2021/09/13 04:14:03;;;;;;;7.60;3.50;;;;;;;16.84;72.16;102008.47;5068807;28;20028;-50
2021/09/13 04:16:29;;;;;;;8.13;3.70;;;;;;;16.91;71.99;102011.16;5064880;28;20098;-47
2021/09/13 04:18:54;;;;;;;6.53;3.40;;;;;;;16.96;72.01;102011.19;5069677;28;20039;-49
2021/09/13 04:21:20;;;;;;;7.05;4.05;;;;;;;16.98;71.67;102012.09;5067560;28;20192;-48
2021/09/13 04:23:45;;;;;;;10.43;4.13;;;;;;;16.98;71.67;102020.00;5066276;28;20079;-48
2021/09/13 04:26:12;;;;;;;7.75;3.95;;;;;;;16.99;71.91;102016.47;5068911;28;20434;-49
2021/09/13 04:28:37;;;;;;;7.70;4.00;;;;;;;16.99;72.17;102019.13;5064924;28;20590;-45
2021/09/13 04:31:03;;;;;;;10.50;4.18;;;;;;;17.00;72.10;102020.88;5062361;28;20223;-48
2021/09/13 04:33:28;;;;;;;8.13;4.30;;;;;;;17.01;71.92;102023.53;5065089;28;20121;-49
2021/09/13 04:35:53;;;;;;;9.40;4.50;;;;;;;17.03;72.04;102018.25;5071102;28;20016;-47
2021/09/13 04:38:19;;;;;;;7.22;4.18;;;;;;;17.04;72.05;102020.03;5064330;28;20602;-47
2021/09/13 04:40:44;;;;;;;10.77;4.57;;;;;;;17.04;72.63;102028.81;5065352;28;20421;-49
2021/09/13 04:43:09;;;;;;;10.40;4.32;;;;;;;17.06;72.73;102023.56;5064615;28;20068;-48
2021/09/13 04:45:35;;;;;;;7.80;4.60;;;;;;;17.07;72.65;102019.16;5066359;28;20200;-48
2021/09/13 04:48:00;;;;;;;12.27;4.82;;;;;;;17.07;72.89;102013.91;5067037;28;20031;-51
2021/09/13 04:50:25;;;;;;;8.75;4.80;;;;;;;17.08;72.99;102023.56;5070716;28;20032;-47
2021/09/13 04:52:51;;;;;;;12.43;5.40;;;;;;;17.08;73.00;102020.94;5065853;28;20043;-47
2021/09/13 04:55:16;;;;;;;11.68;4.88;;;;;;;17.08;73.39;102027.06;5068963;28;20024;-49
2021/09/13 04:57:41;;;;;;;11.32;5.07;;;;;;;17.10;73.46;102017.41;5069239;28;20035;-50
2021/09/13 05:00:07;;;;;;;11.48;5.13;;;;;;;17.13;73.37;102017.44;5068392;28;20044;-49
2021/09/13 05:02:33;;;;;;;9.68;4.93;;;;;;;17.12;73.47;102014.78;5069893;28;20527;-47
2021/09/13 05:04:58;;;;;;;9.73;4.28;;;;;;;17.13;73.84;102025.34;5065648;28;20035;-47
2021/09/13 05:07:23;;;;;;;10.15;4.55;;;;;;;17.16;73.70;102024.47;5067753;28;20077;-49
2021/09/13 05:09:49;;;;;;;10.55;4.78;;;;;;;17.19;73.91;102022.75;5070574;28;20485;-51
2021/09/13 05:12:14;;;;;;;9.38;4.35;;;;;;;17.22;73.75;102019.22;5056567;28;20147;-49
2021/09/13 05:14:40;;;;;;;12.63;4.47;;;;;;;17.22;73.96;102020.09;5071156;28;20628;-51
2021/09/13 05:17:05;;;;;;;8.48;4.60;;;;;;;17.22;73.97;102021.84;5066370;28;20326;-50
2021/09/13 05:19:31;;;;;;;10.43;4.80;;;;;;;17.23;74.00;102016.59;5064809;28;20457;-49
2021/09/13 05:21:57;;;;;;;10.55;4.38;;;;;;;17.25;73.93;102016.63;5067850;28;20032;-48
2021/09/13 05:24:22;;;;;;;10.07;4.30;;;;;;;17.25;73.93;102017.50;5065675;28;20127;-49
2021/09/13 05:26:47;;;;;;;12.57;4.72;;;;;;;17.26;74.23;102021.00;5063670;28;20504;-48
2021/09/13 05:29:13;;;;;;;9.13;4.00;;;;;;;17.35;74.14;102028.94;5068798;28;20494;-49
2021/09/13 05:31:38;;;;;;;9.95;4.40;;;;;;;17.34;74.13;102035.97;5062866;28;20928;-46
2021/09/13 05:34:03;;;;;;;10.70;4.45;;;;;;;17.37;74.10;102043.03;5068887;28;20028;-51
2021/09/13 05:36:29;;;;;;;9.52;4.30;;;;;;;17.39;73.95;102039.50;5064026;28;20051;-51
2021/09/13 05:38:54;;;;;;;10.10;4.70;;;;;;;17.42;74.29;102043.91;5068241;28;20066;-48
2021/09/13 05:41:20;;;;;;;10.30;4.47;;;;;;;17.46;74.17;102037.78;5070749;28;20032;-50
2021/09/13 05:43:45;;;;;;;11.00;4.57;;;;;;;17.51;74.20;102036.03;5069179;28;20445;-53
2021/09/13 05:46:10;;;;;;;10.65;4.47;;;;;;;17.54;73.94;102033.41;5048527;28;20619;-48
2021/09/13 05:48:36;;;;;;;11.57;4.75;;;;;;;17.60;74.11;102035.19;5049431;28;20500;-49
2021/09/13 05:51:03;;;;;;;10.32;4.35;;;;;;;17.68;73.94;102025.59;5070142;28;20035;-48
2021/09/13 05:53:28;;;;;;;9.98;4.10;;;;;;;17.78;73.45;102028.25;5065127;28;20458;-50
2021/09/13 05:55:54;;;;;;;8.27;3.88;;;;;;;17.90;73.20;102034.41;5065485;28;20118;-47
2021/09/13 05:58:19;;;;;;;8.35;4.18;;;;;;;18.08;72.51;102034.44;5071365;28;20936;-51
2021/09/13 06:00:44;;;;;;;5.88;3.90;;;;;;;18.31;71.71;102032.69;5063405;28;20401;-49
2021/09/13 06:03:10;;;;;;;7.70;3.83;;;;;;;18.66;70.96;102026.53;5067701;28;20131;-47
2021/09/13 06:05:36;;;;;;;8.35;3.90;;;;;;;19.12;69.37;102024.66;5068075;28;20862;-47
2021/09/13 06:08:02;;;;;;;7.85;3.80;;;;;;;19.81;67.51;102032.28;5068048;28;20036;-49
2021/09/13 06:10:27;;;;;;;7.38;3.80;;;;;;;20.47;65.13;102031.81;5073800;28;20030;-47
2021/09/13 06:12:52;;;;;;;9.40;4.07;;;;;;;21.13;62.28;102034.63;5063223;28;20306;-48
2021/09/13 06:15:18;;;;;;;6.07;3.20;;;;;;;21.60;59.72;102032.28;5065161;28;20378;-51
2021/09/13 06:17:43;;;;;;;6.95;3.10;;;;;;;21.75;58.52;102036.50;5064486;28;20098;-49
2021/09/13 06:20:09;;;;;;;8.73;3.20;;;;;;;21.93;57.99;102036.25;5069287;28;20095;-48
2021/09/13 06:22:35;;;;;;;7.28;3.08;;;;;;;22.19;57.43;102035.88;5071649;28;20259;-49
2021/09/13 06:25:00;;;;;;;7.15;3.17;;;;;;;22.22;57.58;102036.69;5071683;28;20656;-51
2021/09/13 06:27:25;;;;;;;9.55;3.40;;;;;;;21.97;58.93;102042.41;5070112;28;20043;-49
2021/09/13 06:29:51;;;;;;;5.90;2.80;;;;;;;22.27;57.32;102040.16;5067411;28;20364;-48
2021/09/13 06:32:16;;;;;;;10.02;3.10;;;;;;;22.70;56.72;102043.84;5052607;28;20516;-49
2021/09/13 06:34:42;;;;;;;6.75;3.28;;;;;;;22.55;55.31;102037.03;5067398;28;20218;-48
2021/09/13 06:37:07;;;;;;;8.48;3.00;;;;;;;22.10;56.72;102039.53;5068027;28;20073;-49
2021/09/13 06:39:32;;;;;;;12.57;3.25;;;;;;;21.48;59.97;102051.03;5034024;28;21272;-49
2021/09/13 06:41:59;;;;;;;7.78;2.70;;;;;;;21.24;57.80;102053.97;5046178;28;20167;-48
2021/09/13 06:44:26;;;;;;;5.70;2.35;;;;;;;21.15;58.28;102060.28;5068392;28;20027;-50
2021/09/13 06:47:21;;;;;;;9.95;2.88;;;;;;;20.92;58.52;102062.28;5063078;28;20085;-48
2021/09/13 06:49:40;;;;;;;6.68;2.40;;;;;;;20.71;58.72;102059.84;5065169;28;20271;-54
2021/09/13 06:52:06;;;;;;;6.35;2.65;;;;;;;20.55;60.70;102046.72;5047217;28;20256;-50
2021/09/13 06:54:31;;;;;;;7.28;2.60;;;;;;;20.53;60.62;102050.28;5067816;28;20377;-50
2021/09/13 06:56:57;;;;;;;7.50;2.78;;;;;;;20.36;60.78;102046.91;5066904;28;20029;-49
2021/09/13 06:59:24;;;;;;;5.75;2.90;;;;;;;20.42;61.59;102045.09;5063612;28;20096;-51
2021/09/13 07:01:51;;;;;;;6.75;3.13;;;;;;;20.50;61.94;102047.66;5051939;28;20044;-47
2021/09/13 07:04:16;;;;;;;9.15;3.65;;;;;;;20.64;61.91;102051.06;5068434;28;20383;-49
2021/09/13 07:06:41;;;;;;;6.15;3.08;;;;;;;20.55;62.03;102048.53;5049232;28;20032;-48
2021/09/13 07:09:07;;;;;;;8.07;3.15;;;;;;;20.51;61.81;102058.25;5073124;28;20094;-48
2021/09/13 07:11:32;;;;;;;8.65;3.28;;;;;;;20.41;61.80;102069.81;5064563;28;20104;-48
2021/09/13 07:13:58;;;;;;;9.35;3.30;;;;;;;20.41;62.32;102067.16;5072543;28;20486;-49
2021/09/13 07:16:23;;;;;;;6.88;3.20;;;;;;;20.44;62.70;102069.78;5070904;28;20626;-48
2021/09/13 07:18:48;;;;;;;9.25;3.38;;;;;;;20.34;62.38;102065.47;5068909;28;20488;-48
2021/09/13 07:21:15;;;;;;;10.65;3.50;;;;;;;20.34;62.23;102061.94;5071364;28;20032;-54
2021/09/13 07:23:40;;;;;;;7.60;3.35;;;;;;;20.32;61.88;102069.88;5052032;28;20443;-49
2021/09/13 07:26:05;;;;;;;8.30;3.30;;;;;;;20.42;61.52;102073.34;5069256;28;20535;-47
2021/09/13 07:28:31;;;;;;;8.05;3.47;;;;;;;20.63;61.54;102075.81;5066638;28;20434;-49
2021/09/13 07:30:56;;;;;;;7.10;2.90;;;;;;;20.84;61.15;102082.69;5069418;28;20473;-51
2021/09/13 07:33:22;;;;;;;6.05;3.22;;;;;;;20.77;61.84;102084.50;5072859;28;20541;-47
2021/09/13 07:35:47;;;;;;;6.75;3.30;;;;;;;20.68;63.91;102092.53;5052321;28;20024;-51
2021/09/13 07:38:13;;;;;;;7.28;3.15;;;;;;;20.67;61.26;102086.34;5071179;28;20335;-50
2021/09/13 07:40:38;;;;;;;7.82;3.20;;;;;;;20.79;61.14;102087.16;5069934;28;20036;-52
2021/09/13 07:43:03;;;;;;;8.55;3.20;;;;;;;20.84;61.04;102091.53;5065489;28;20082;-48
2021/09/13 07:45:29;;;;;;;7.68;3.20;;;;;;;20.85;61.83;102087.97;5063977;28;20527;-52
2021/09/13 07:47:54;;;;;;;8.20;2.95;;;;;;;20.80;60.66;102083.63;5064182;28;20036;-48
2021/09/13 07:50:20;;;;;;;6.95;2.20;;;;;;;20.77;58.86;102086.28;5067983;28;20605;-48
2021/09/13 07:52:45;;;;;;;5.78;1.60;;;;;;;20.30;58.89;102087.53;5055905;28;20156;-47
2021/09/13 07:55:11;;;;;;;6.60;2.17;;;;;;;20.30;59.55;102087.53;5064357;28;20032;-49
2021/09/13 07:57:36;;;;;;;5.38;2.30;;;;;;;20.50;61.44;102088.28;5064846;28;20032;-48
2021/09/13 08:00:04;;;;;;;6.70;2.30;;;;;;;20.65;60.03;102088.16;5058723;28;20620;-51
2021/09/13 08:02:31;;;;;;;4.22;2.05;;;;;;;20.95;58.92;102088.75;5067439;28;20028;-49
2021/09/13 08:04:59;;;;;;;8.63;2.13;;;;;;;21.03;59.89;102092.22;5063785;28;20538;-48
2021/09/13 08:07:24;;;;;;;7.40;1.75;;;;;;;21.10;57.75;102098.34;5063261;28;20240;-47
2021/09/13 08:09:49;;;;;;;4.43;1.65;;;;;;;21.23;59.01;102100.84;5063296;28;20436;-49
2021/09/13 08:12:15;;;;;;;5.03;1.50;;;;;;;21.44;56.31;102102.38;5067853;28;20481;-48
2021/09/13 08:14:40;;;;;;;3.70;1.20;;;;;;;21.45;56.89;102098.84;5069225;28;20027;-47
2021/09/13 08:17:06;;;;;;;4.07;1.35;;;;;;;21.92;54.93;102086.72;5063251;28;20121;-51
2021/09/13 08:19:31;;;;;;;4.30;1.27;;;;;;;21.93;54.46;102092.00;5070532;28;20120;-49
2021/09/13 08:21:57;;;;;;;3.65;1.30;;;;;;;21.98;53.45;102094.63;5064187;28;20252;-50
2021/09/13 08:24:22;;;;;;;3.22;1.17;;;;;;;21.94;53.29;102100.84;5049017;28;20028;-48
2021/09/13 08:26:47;;;;;;;4.55;1.10;;;;;;;22.01;54.96;102098.13;5069135;28;20254;-50
2021/09/13 08:29:15;;;;;;;3.13;1.30;;;;;;;22.16;55.57;102097.00;5065397;28;20027;-49
2021/09/13 08:31:41;;;;;;;2.97;1.02;;;;;;;22.25;54.16;102096.88;5066974;28;20471;-48
2021/09/13 08:34:07;;;;;;;2.47;1.05;;;;;;;22.22;54.18;102102.22;5050722;28;20454;-48
2021/09/13 08:36:32;;;;;;;3.22;1.10;;;;;;;22.34;52.49;102102.03;5065300;28;20460;-49
2021/09/13 08:38:57;;;;;;;4.38;1.38;;;;;;;22.45;53.62;102101.84;5063415;28;20138;-52
2021/09/13 08:41:22;;;;;;;5.32;1.92;;;;;;;22.24;53.17;102106.63;5066864;28;20055;-49
2021/09/13 08:43:48;;;;;;;3.40;1.40;;;;;;;22.33;52.68;102105.59;5068132;28;20169;-48
2021/09/13 08:46:20;;;;;;;3.67;1.70;;;;;;;22.64;52.97;102116.59;5062377;28;20643;-48
2021/09/13 08:48:50;;;;;;;2.83;1.17;;;;;;;22.45;52.21;102108.03;5051578;28;20047;-49
2021/09/13 08:51:18;;;;;;;3.13;1.38;;;;;;;22.51;52.08;102107.06;5064267;28;20042;-50
2021/09/13 08:53:49;;;;;;;3.22;1.20;;;;;;;22.60;52.51;102113.13;5066575;28;20060;-49
2021/09/13 08:56:16;;;;;;;2.70;1.00;;;;;;;22.66;51.21;102114.81;5063409;28;20028;-53
2021/09/13 08:58:43;;;;;;;2.67;1.00;;;;;;;22.69;51.42;102114.72;5048421;28;20309;-49
2021/09/13 09:01:10;;;;;;;3.63;1.00;;;;;;;22.73;51.90;102118.28;5066983;28;20028;-47
2021/09/13 09:03:36;;;;;;;2.13;0.98;;;;;;;22.62;52.36;102113.09;5066615;28;20032;-49
2021/09/13 09:06:02;;;;;;;2.03;0.88;;;;;;;22.90;51.90;102111.75;5046582;28;20031;-50
2021/09/13 09:08:30;;;;;;;2.30;0.98;;;;;;;22.99;51.64;102118.69;5066926;28;20392;-48
2021/09/13 09:11:01;;;;;;;3.20;1.10;;;;;;;22.68;50.41;102120.97;5064775;28;20032;-48
2021/09/13 09:13:38;;;;;;;3.05;1.30;;;;;;;22.56;53.32;102122.06;5068182;28;20085;-47
2021/09/13 09:16:04;;;;;;;4.40;1.00;;;;;;;22.23;51.40;102122.56;5063894;28;20113;-49
2021/09/13 09:18:41;;;;;;;2.35;1.10;;;;;;;22.16;53.35;102131.53;5046353;28;20350;-48
2021/09/13 09:21:30;;;;;;;3.63;1.20;;;;;;;21.67;53.16;102129.50;5066116;28;20479;-48
2021/09/13 09:24:04;;;;;;;3.85;1.20;;;;;;;22.02;52.37;102133.50;5064353;28;20028;-50
2021/09/13 09:26:30;;;;;;;;;;;;;;;22.10;54.21;102127.19;5068021;28;20043;-47
2021/09/13 09:28:56;;;;;;;3.15;1.00;;;;;;;22.29;52.87;102137.53;5066891;28;20449;-49
2021/09/13 09:31:41;;;;;;;2.83;1.10;;;;;;;22.41;53.43;102124.06;5067813;28;20119;-50
2021/09/13 09:34:16;;;;;;;5.07;1.15;;;;;;;22.57;52.27;102125.56;5031771;28;20066;-48
2021/09/13 09:37:01;;;;;;;2.55;1.05;;;;;;;22.59;54.35;102123.78;5071292;28;20062;-50
2021/09/13 09:39:37;;;;;;;2.58;1.50;;;;;;;22.65;50.46;102124.56;5060449;28;20035;-49
2021/09/13 09:42:04;;;;;;;3.97;1.27;;;;;;;22.71;53.23;102114.72;5064262;28;20481;-50
2021/09/13 09:44:30;;;;;;;5.70;1.38;;;;;;;22.43;51.78;102120.50;5064717;28;20059;-47
2021/09/13 09:47:01;;;;;;;2.75;1.40;;;;;;;22.71;51.48;102117.38;5068995;28;20673;-47
2021/09/13 09:49:39;;;;;;;3.33;1.45;;;;;;;22.80;52.93;102115.50;5064447;28;20028;-50
2021/09/13 09:52:05;;;;;;;5.72;1.70;;;;;;;22.36;52.11;102113.53;5067976;28;20031;-48
2021/09/13 09:54:32;;;;;;;4.07;1.60;;;;;;;22.29;52.79;102110.97;5075444;28;20590;-50
2021/09/13 09:57:09;;;;;;;5.15;1.80;;;;;;;22.20;53.84;102109.34;5067374;28;20032;-46
2021/09/13 09:59:36;;;;;;;4.82;1.90;;;;;;;21.92;54.53;102122.09;5063037;28;20532;-47
2021/09/13 10:02:13;;;;;;;3.30;2.00;;;;;;;21.80;54.53;102115.19;5068935;28;20035;-47
2021/09/13 10:04:39;;;;;;;4.35;2.42;;;;;;;21.77;55.71;102111.72;5069810;28;20024;-47
2021/09/13 10:07:06;;;;;;;6.25;2.60;;;;;;;21.51;56.44;102111.16;5070551;28;20039;-48
2021/09/13 10:09:31;;;;;;;4.57;2.00;;;;;;;21.74;55.64;102109.97;5067400;28;20158;-48
2021/09/13 10:12:04;;;;;;;4.70;1.77;;;;;;;21.54;55.17;102113.75;5071434;28;20032;-51
2021/09/13 10:14:31;;;;;;;5.72;1.70;;;;;;;21.56;54.31;102112.84;5064264;28;20020;-47
2021/09/13 10:16:56;;;;;;;2.63;1.60;;;;;;;21.82;54.58;102112.53;5063853;28;20419;-47
2021/09/13 10:19:24;;;;;;;5.15;1.63;;;;;;;21.94;54.37;102104.38;5065575;28;20019;-47
2021/09/13 10:21:50;;;;;;;2.72;1.30;;;;;;;21.75;53.86;102108.19;5069983;28;20063;-50
2021/09/13 10:24:27;;;;;;;2.95;1.30;;;;;;;21.75;52.97;102103.75;5069628;28;20082;-47
2021/09/13 10:27:07;;;;;;;2.63;1.20;;;;;;;21.71;53.19;102104.69;5049846;28;20024;-48
2021/09/13 10:29:33;;;;;;;2.55;1.20;;;;;;;21.82;53.97;102101.91;5053246;28;20557;-48
2021/09/13 10:32:06;;;;;;;2.90;1.40;;;;;;;21.96;52.68;102102.59;5045248;28;20024;-48
2021/09/13 10:34:40;;;;;;;4.00;1.27;;;;;;;22.23;54.92;102096.91;5035985;28;20043;-48
2021/09/13 10:37:21;;;;;;;3.20;1.25;;;;;;;22.37;53.96;102094.03;5059043;28;20531;-49
2021/09/13 10:39:50;;;;;;;3.10;1.52;;;;;;;22.43;54.45;102095.72;5067724;28;20059;-49
2021/09/13 10:42:35;;;;;;;4.68;1.60;;;;;;;22.39;52.87;102091.31;5066001;28;20039;-49
2021/09/13 10:45:17;;;;;;;3.83;1.50;;;;;;;22.62;54.23;102094.50;5070969;28;20123;-48
2021/09/13 10:47:58;;;;;;;3.90;1.30;;;;;;;22.96;52.69;102089.47;5060220;28;20117;-48
2021/09/13 10:50:42;;;;;;;2.67;1.40;;;;;;;22.91;51.96;102086.91;5068514;28;20031;-49
2021/09/13 10:53:16;;;;;;;2.60;1.38;;;;;;;22.99;51.50;102082.31;5073516;28;20070;-48
2021/09/13 10:55:46;;;;;;;4.85;1.40;;;;;;;23.07;51.58;102079.50;5063183;28;20111;-50
2021/09/13 10:58:18;;;;;;;4.45;1.70;;;;;;;22.79;50.17;102080.94;5068324;28;20400;-46
2021/09/13 11:00:43;;;;;;;3.72;1.80;;;;;;;22.88;52.84;102073.66;5048112;28;20047;-48
2021/09/13 11:06:14;;;;;;;4.05;1.70;;;;;;;23.26;51.65;102070.25;5069519;28;20067;-47
2021/09/13 11:08:50;;;;;;;6.97;1.92;;;;;;;23.36;52.66;102074.47;5065853;28;20066;-48
2021/09/13 11:11:29;;;;;;;3.33;1.40;;;;;;;23.52;50.08;102069.75;5072581;28;20046;-50
2021/09/13 11:13:59;;;;;;;3.45;1.40;;;;;;;23.73;50.12;102073.72;5070081;28;20339;-51
2021/09/13 11:16:27;;;;;;;3.45;1.50;;;;;;;23.80;49.52;102070.91;5053031;28;20353;-48
2021/09/13 11:18:53;;;;;;;3.53;1.70;;;;;;;23.77;49.10;102063.00;5067236;28;20043;-49
2021/09/13 11:21:24;;;;;;;5.68;1.42;;;;;;;23.70;48.35;102061.38;5064813;28;20484;-49
2021/09/13 11:23:57;;;;;;;3.15;1.38;;;;;;;23.55;47.97;102055.50;5068639;28;20032;-49
2021/09/13 11:26:32;;;;;;;3.65;1.50;;;;;;;23.41;48.28;102061.97;5068749;28;20258;-47
2021/09/13 11:29:02;;;;;;;3.15;1.35;;;;;;;23.52;48.50;102055.56;5073498;28;20077;-48
2021/09/13 11:31:37;;;;;;;4.80;1.30;;;;;;;23.49;49.83;102052.97;5067231;28;20032;-51